createdAt,value
2022-12-19T00:01:52.584Z,38.80
2022-12-19T00:04:21.014Z,39.37
2022-12-19T00:06:47.488Z,38.43
2022-12-19T00:09:13.923Z,38.50
2022-12-19T00:11:43.784Z,36.13
2022-12-19T00:14:11.631Z,38.37
2022-12-19T00:16:38.108Z,31.73
2022-12-19T00:19:11.274Z,34.37
2022-12-19T00:21:38.328Z,33.10
2022-12-19T00:24:19.868Z,32.00
2022-12-19T00:26:52.272Z,33.97
2022-12-19T00:29:18.822Z,31.87
2022-12-19T00:31:46.697Z,31.27
2022-12-19T00:34:18.991Z,30.63
2022-12-19T00:36:45.505Z,30.25
2022-12-19T00:39:20.275Z,41.70
2022-12-19T00:41:46.738Z,34.10
2022-12-19T00:44:14.604Z,34.23
2022-12-19T00:46:41.764Z,32.67
2022-12-19T00:49:08.485Z,30.30
2022-12-19T00:51:37.564Z,36.27
2022-12-19T00:54:06.747Z,29.50
2022-12-19T00:56:38.855Z,34.20
2022-12-19T00:59:09.170Z,33.03
2022-12-19T01:01:39.019Z,30.70
2022-12-19T01:07:01.565Z,27.10
2022-12-19T01:09:32.316Z,31.37
2022-12-19T01:12:17.366Z,27.03
2022-12-19T01:14:43.789Z,27.17
2022-12-19T01:17:17.788Z,25.27
2022-12-19T01:19:44.893Z,31.27
2022-12-19T01:22:12.739Z,26.20
2022-12-19T01:24:41.287Z,28.40
2022-12-19T01:27:08.120Z,33.13
2022-12-19T01:29:34.700Z,33.33
2022-12-19T01:32:04.130Z,27.83
2022-12-19T01:34:30.990Z,34.37
2022-12-19T01:36:57.418Z,29.17
2022-12-19T01:39:23.801Z,28.53
2022-12-19T01:41:58.693Z,32.00
2022-12-19T01:44:29.756Z,33.05
2022-12-19T01:46:57.781Z,33.20
2022-12-19T01:49:35.521Z,34.87
2022-12-19T01:52:07.783Z,36.63
2022-12-19T01:54:46.012Z,38.70
2022-12-19T01:57:16.072Z,36.27
2022-12-19T01:59:48.200Z,36.80
2022-12-19T02:04:49.880Z,39.83
2022-12-19T02:07:18.473Z,33.17
2022-12-19T02:09:49.623Z,34.23
2022-12-19T02:12:25.602Z,37.37
2022-12-19T02:15:02.958Z,33.10
2022-12-19T02:17:52.851Z,43.77
2022-12-19T02:20:55.146Z,32.83
2022-12-19T02:23:48.290Z,37.75
2022-12-19T02:26:52.876Z,40.87
2022-12-19T02:29:53.483Z,42.30
2022-12-19T02:32:30.951Z,34.80
2022-12-19T02:35:15.461Z,42.03
2022-12-19T02:37:52.471Z,42.07
2022-12-19T02:40:26.648Z,40.90
2022-12-19T02:42:59.348Z,34.20
2022-12-19T02:45:45.214Z,33.93
2022-12-19T02:48:17.608Z,36.37
2022-12-19T02:50:48.486Z,35.07
2022-12-19T02:53:17.328Z,34.58
2022-12-19T02:56:19.097Z,35.77
2022-12-19T02:59:05.831Z,31.93
2022-12-19T03:01:47.686Z,28.90
2022-12-19T03:04:36.370Z,29.42
2022-12-19T03:07:18.133Z,37.23
2022-12-19T03:09:58.403Z,33.80
2022-12-19T03:12:32.196Z,33.33
2022-12-19T03:15:01.800Z,29.87
2022-12-19T03:17:48.055Z,35.77
2022-12-19T03:20:25.314Z,31.10
2022-12-19T03:23:24.762Z,30.73
2022-12-19T03:26:01.581Z,29.97
2022-12-19T03:28:40.460Z,27.20
2022-12-19T03:31:09.772Z,33.37
2022-12-19T03:33:39.537Z,25.20
2022-12-19T03:36:10.287Z,28.80
2022-12-19T03:38:40.532Z,23.23
2022-12-19T03:41:10.712Z,31.80
2022-12-19T03:43:38.707Z,26.93
2022-12-19T03:46:23.012Z,31.23
2022-12-19T03:48:53.919Z,23.10
2022-12-19T03:51:44.438Z,23.43
2022-12-19T03:54:21.844Z,20.97
2022-12-19T03:56:54.281Z,30.07
2022-12-19T03:59:50.845Z,26.60
2022-12-19T04:02:21.835Z,19.13
2022-12-19T04:04:56.216Z,17.53
2022-12-19T04:07:24.328Z,17.47
2022-12-19T04:09:56.514Z,18.40
2022-12-19T04:12:31.749Z,14.38
2022-12-19T04:14:58.202Z,18.83
2022-12-19T04:17:30.751Z,12.90
2022-12-19T04:20:02.765Z,17.43
2022-12-19T04:22:41.031Z,13.00
2022-12-19T04:25:12.472Z,14.70
2022-12-19T04:27:43.355Z,15.93
2022-12-19T04:30:17.123Z,18.43
2022-12-19T04:32:46.955Z,11.80
2022-12-19T04:35:14.130Z,13.53
2022-12-19T04:37:41.696Z,17.20
2022-12-19T04:40:09.325Z,16.47
2022-12-19T04:42:38.881Z,15.47
2022-12-19T04:45:13.677Z,13.57
2022-12-19T04:47:40.552Z,14.03
2022-12-19T04:50:07.352Z,18.43
2022-12-19T04:52:34.064Z,15.80
2022-12-19T04:55:02.522Z,14.17
2022-12-19T04:57:30.421Z,13.37
2022-12-19T04:59:56.910Z,14.57
2022-12-19T05:02:24.396Z,13.90
2022-12-19T05:04:51.658Z,16.03
2022-12-19T05:07:18.033Z,11.90
2022-12-19T05:09:49.720Z,16.57
2022-12-19T05:12:26.034Z,11.98
2022-12-19T05:14:57.034Z,11.20
2022-12-19T05:17:32.563Z,11.97
2022-12-19T05:20:01.884Z,12.87
2022-12-19T05:22:46.133Z,13.27
2022-12-19T05:25:12.843Z,12.03
2022-12-19T05:27:39.258Z,12.37
2022-12-19T05:30:06.321Z,10.00
2022-12-19T05:32:34.082Z,11.70
2022-12-19T05:35:00.750Z,10.67
2022-12-19T05:37:27.229Z,9.83
2022-12-19T05:39:53.680Z,11.30
2022-12-19T05:42:23.409Z,10.33
2022-12-19T05:44:49.858Z,12.07
2022-12-19T05:47:20.425Z,11.63
2022-12-19T05:49:47.860Z,12.87
2022-12-19T05:52:14.455Z,10.77
2022-12-19T05:57:26.056Z,9.87
2022-12-19T05:59:52.888Z,11.63
2022-12-19T06:02:19.648Z,12.03
2022-12-19T06:04:46.119Z,9.50
2022-12-19T06:07:16.487Z,10.13
2022-12-19T06:09:52.830Z,11.53
2022-12-19T06:12:19.454Z,10.68
2022-12-19T06:14:45.848Z,12.00
2022-12-19T06:17:12.286Z,11.48
2022-12-19T06:19:38.719Z,11.70
2022-12-19T06:22:05.337Z,11.82
2022-12-19T06:24:31.765Z,10.43
2022-12-19T06:26:58.122Z,11.20
2022-12-19T06:29:24.630Z,9.18
2022-12-19T06:31:51.282Z,11.88
2022-12-19T06:34:46.918Z,11.93
2022-12-19T06:37:08.487Z,8.60
2022-12-19T06:39:35.181Z,9.63
2022-12-19T06:42:20.363Z,8.57
2022-12-19T06:44:47.043Z,14.32
2022-12-19T06:47:13.550Z,9.43
2022-12-19T06:49:39.974Z,8.77
2022-12-19T06:52:09.283Z,11.70
2022-12-19T06:54:35.792Z,13.00
2022-12-19T06:57:02.519Z,11.38
2022-12-19T06:59:28.955Z,11.73
2022-12-19T07:02:13.668Z,9.43
2022-12-19T07:04:55.258Z,9.73
2022-12-19T07:07:21.654Z,10.13
2022-12-19T07:09:48.699Z,8.68
2022-12-19T07:12:18.140Z,14.07
2022-12-19T07:14:47.768Z,12.13
2022-12-19T07:17:25.282Z,13.68
2022-12-19T07:19:54.286Z,12.35
2022-12-19T07:22:21.124Z,12.80
2022-12-19T07:24:47.932Z,12.98
2022-12-19T07:27:14.367Z,13.07
2022-12-19T07:29:40.763Z,13.75
2022-12-19T07:32:07.147Z,11.82
2022-12-19T07:34:33.638Z,13.00
2022-12-19T07:37:00.093Z,15.00
2022-12-19T07:39:27.051Z,14.73
2022-12-19T07:41:53.527Z,12.68
2022-12-19T07:44:19.923Z,14.02
2022-12-19T07:46:46.699Z,13.65
2022-12-19T07:49:14.939Z,12.65
2022-12-19T07:51:58.129Z,12.68
2022-12-19T07:54:24.706Z,11.70
2022-12-19T07:56:51.250Z,14.73
2022-12-19T07:59:17.912Z,13.77
2022-12-19T08:01:44.338Z,13.18
2022-12-19T08:04:11.157Z,12.23
2022-12-19T08:06:41.043Z,12.70
2022-12-19T08:09:09.542Z,10.18
2022-12-19T08:11:35.936Z,13.95
2022-12-19T08:14:02.368Z,11.68
2022-12-19T08:16:29.134Z,12.05
2022-12-19T08:18:55.726Z,11.88
2022-12-19T08:21:22.921Z,11.80
2022-12-19T08:23:51.379Z,12.73
2022-12-19T08:26:25.487Z,10.40
2022-12-19T08:28:57.008Z,11.57
2022-12-19T08:31:25.729Z,15.50
2022-12-19T08:33:56.873Z,24.58
2022-12-19T08:36:23.839Z,11.23
2022-12-19T08:38:50.828Z,11.52
2022-12-19T08:41:17.747Z,12.95
2022-12-19T08:43:50.313Z,12.55
2022-12-19T08:46:17.805Z,10.70
2022-12-19T08:48:47.540Z,12.23
2022-12-19T08:51:15.351Z,11.75
2022-12-19T08:53:43.686Z,13.07
2022-12-19T08:56:21.735Z,11.27
2022-12-19T08:58:50.587Z,11.80
2022-12-19T09:01:19.512Z,9.70
2022-12-19T09:04:46.015Z,12.23
2022-12-19T09:06:34.719Z,11.38
2022-12-19T09:09:02.410Z,10.73
2022-12-19T09:11:29.082Z,11.70
2022-12-19T09:13:57.471Z,10.80
2022-12-19T09:16:26.511Z,16.20
2022-12-19T09:18:57.002Z,10.50
2022-12-19T09:21:25.540Z,11.63
2022-12-19T09:24:07.414Z,10.82
2022-12-19T09:29:03.579Z,8.50
2022-12-19T09:31:33.305Z,8.45
2022-12-19T09:34:00.226Z,10.93
2022-12-19T09:36:32.418Z,10.63
2022-12-19T09:41:53.363Z,7.57
2022-12-19T09:44:47.138Z,8.95
2022-12-19T09:47:18.611Z,9.70
2022-12-19T09:49:47.513Z,9.38
2022-12-19T09:52:35.048Z,10.43
2022-12-19T09:55:24.747Z,8.65
2022-12-19T09:58:06.324Z,9.68
2022-12-19T10:00:37.622Z,8.27
2022-12-19T10:03:17.949Z,9.88
2022-12-19T10:07:12.886Z,9.25
2022-12-19T10:09:27.667Z,7.53
2022-12-19T10:12:46.144Z,10.02
2022-12-19T10:15:30.725Z,7.80
2022-12-19T10:18:15.435Z,8.77
2022-12-19T10:20:50.871Z,9.82
2022-12-19T10:23:39.355Z,9.75
2022-12-19T10:26:20.750Z,9.55
2022-12-19T10:29:17.047Z,7.97
2022-12-19T10:32:00.605Z,8.68
2022-12-19T10:34:41.561Z,11.25
2022-12-19T10:37:29.113Z,12.02
2022-12-19T10:40:11.636Z,11.05
2022-12-19T10:42:54.825Z,8.93
2022-12-19T10:45:23.492Z,10.75
2022-12-19T10:47:55.558Z,7.57
2022-12-19T10:50:27.090Z,9.43
2022-12-19T10:52:55.098Z,7.72
2022-12-19T10:55:34.678Z,11.45
2022-12-19T10:58:22.893Z,7.60
2022-12-19T11:01:06.347Z,8.50
2022-12-19T11:03:34.151Z,8.40
2022-12-19T11:06:02.699Z,11.38
2022-12-19T11:08:33.543Z,8.00
2022-12-19T11:13:33.034Z,8.63
2022-12-19T11:18:33.272Z,7.90
2022-12-19T11:21:53.072Z,9.18
2022-12-19T11:29:16.461Z,8.38
2022-12-19T11:29:26.191Z,9.20
2022-12-19T11:30:36.676Z,6.20
2022-12-19T11:30:41.369Z,6.18
2022-12-19T11:32:14.200Z,9.70
2022-12-19T11:33:49.384Z,7.67
2022-12-19T11:36:37.785Z,7.38
2022-12-19T11:39:08.622Z,7.40
2022-12-19T11:41:48.633Z,7.75
2022-12-19T11:44:21.529Z,12.23
2022-12-19T11:46:57.193Z,8.27
2022-12-19T11:49:40.846Z,11.23
2022-12-19T11:53:02.909Z,7.78
2022-12-19T11:55:44.269Z,9.48
2022-12-19T11:58:11.963Z,9.32
2022-12-19T12:01:02.004Z,12.95
2022-12-19T12:03:28.471Z,6.70
2022-12-19T12:05:56.652Z,10.38
2022-12-19T12:10:56.447Z,9.43
2022-12-19T12:14:50.638Z,7.57
2022-12-19T12:24:56.218Z,7.25
2022-12-19T12:31:16.751Z,15.85
2022-12-19T12:31:23.724Z,8.05
2022-12-19T12:31:48.511Z,7.20
2022-12-19T12:31:58.650Z,6.40
2022-12-19T12:32:03.746Z,7.47
2022-12-19T12:35:57.124Z,12.23
2022-12-19T12:39:44.434Z,7.93
2022-12-19T12:42:43.112Z,6.97
2022-12-19T12:45:33.691Z,8.25
2022-12-19T12:48:00.131Z,6.00
2022-12-19T12:50:31.802Z,7.45
2022-12-19T12:53:02.469Z,5.57
2022-12-19T12:55:34.216Z,9.60
2022-12-19T12:58:00.891Z,7.60
2022-12-19T13:00:33.736Z,7.95
2022-12-19T13:03:11.000Z,8.07
2022-12-19T13:06:03.359Z,7.15
2022-12-19T13:08:49.181Z,8.73
2022-12-19T13:11:37.534Z,8.02
2022-12-19T13:14:06.685Z,9.52
2022-12-19T13:16:45.353Z,7.05
2022-12-19T13:19:27.816Z,5.32
2022-12-19T13:22:03.976Z,6.75
2022-12-19T13:24:50.413Z,5.32
2022-12-19T13:27:19.502Z,6.80
2022-12-19T13:30:01.201Z,7.28
2022-12-19T13:32:38.936Z,5.45
2022-12-19T13:37:05.658Z,6.18
2022-12-19T13:40:01.895Z,7.57
2022-12-19T13:41:52.939Z,9.15
2022-12-19T13:44:21.806Z,5.93
2022-12-19T13:46:49.560Z,6.63
2022-12-19T13:49:35.087Z,7.05
2022-12-19T13:52:03.024Z,7.03
2022-12-19T13:54:34.405Z,10.40
2022-12-19T13:57:09.218Z,5.47
2022-12-19T13:59:38.454Z,6.82
2022-12-19T14:02:18.075Z,8.35
2022-12-19T14:04:45.556Z,7.80
2022-12-19T14:07:36.922Z,6.25
2022-12-19T14:11:44.886Z,7.20
2022-12-19T14:13:48.868Z,5.00
2022-12-19T14:15:59.850Z,5.78
2022-12-19T14:18:44.352Z,5.53
2022-12-19T14:22:06.388Z,5.38
2022-12-19T14:24:20.125Z,6.68
2022-12-19T14:28:16.785Z,8.35
2022-12-19T14:30:27.579Z,6.20
2022-12-19T14:33:46.310Z,6.38
2022-12-19T14:36:12.306Z,7.05
2022-12-19T14:39:25.613Z,5.00
2022-12-19T14:41:41.434Z,5.72
2022-12-19T14:52:34.302Z,6.40
2022-12-19T14:53:51.550Z,4.68
2022-12-19T14:54:23.411Z,5.95
2022-12-19T14:54:44.184Z,5.55
2022-12-19T14:59:05.656Z,6.97
2022-12-19T15:01:34.641Z,5.93
2022-12-19T15:04:49.633Z,6.40
2022-12-19T15:07:10.038Z,4.65
2022-12-19T15:11:07.821Z,6.18
2022-12-19T15:14:49.150Z,5.78
2022-12-19T15:16:05.816Z,8.65
2022-12-19T15:18:32.455Z,7.82
2022-12-19T15:21:02.531Z,6.03
2022-12-19T15:23:30.078Z,7.80
2022-12-19T15:26:03.871Z,6.88
2022-12-19T15:28:52.701Z,6.32
2022-12-19T15:31:43.157Z,7.72
2022-12-19T15:34:50.627Z,4.97
2022-12-19T15:37:17.294Z,5.63
2022-12-19T15:39:44.992Z,5.00
2022-12-19T15:42:23.554Z,6.45
2022-12-19T15:44:52.500Z,6.85
2022-12-19T15:47:29.730Z,6.10
2022-12-19T15:49:56.203Z,5.28
2022-12-19T15:52:23.872Z,5.95
2022-12-19T15:54:50.989Z,6.28
2022-12-19T15:57:29.828Z,8.98
2022-12-19T15:59:58.554Z,9.95
2022-12-19T16:02:42.800Z,6.13
2022-12-19T16:05:14.446Z,7.43
2022-12-19T16:07:41.229Z,7.47
2022-12-19T16:10:08.801Z,8.18
2022-12-19T16:12:38.578Z,6.00
2022-12-19T16:15:06.856Z,8.25
2022-12-19T16:17:33.365Z,7.28
2022-12-19T16:19:59.795Z,7.00
2022-12-19T16:22:28.123Z,6.45
2022-12-19T16:24:54.678Z,7.97
2022-12-19T16:27:30.478Z,6.70
2022-12-19T16:30:07.075Z,7.28
2022-12-19T16:32:33.547Z,10.10
2022-12-19T16:34:59.937Z,9.43
2022-12-19T16:37:31.999Z,6.93
2022-12-19T16:39:58.885Z,6.53
2022-12-19T16:42:25.700Z,9.30
2022-12-19T16:44:53.605Z,6.57
2022-12-19T16:47:20.103Z,8.13
2022-12-19T16:49:46.647Z,5.55
2022-12-19T16:52:13.371Z,12.63
2022-12-19T16:54:39.964Z,5.90
2022-12-19T16:57:18.135Z,8.27
2022-12-19T16:59:44.643Z,6.93
2022-12-19T17:02:24.962Z,10.27
2022-12-19T17:04:54.108Z,7.90
2022-12-19T17:07:20.767Z,8.10
2022-12-19T17:09:47.169Z,7.07
2022-12-19T17:12:18.202Z,8.98
2022-12-19T17:14:44.793Z,6.32
2022-12-19T17:17:15.764Z,6.68
2022-12-19T17:19:45.165Z,7.35
2022-12-19T17:22:13.607Z,5.57
2022-12-19T17:24:40.117Z,6.20
2022-12-19T17:27:06.775Z,7.22
2022-12-19T17:29:33.147Z,6.20
2022-12-19T17:31:59.739Z,9.10
2022-12-19T17:34:31.938Z,7.35
2022-12-19T17:39:28.973Z,7.88
2022-12-19T17:42:02.248Z,5.18
2022-12-19T17:44:28.778Z,5.15
2022-12-19T17:46:55.239Z,4.68
2022-12-19T17:49:29.120Z,5.53
2022-12-19T17:51:56.627Z,6.72
2022-12-19T17:54:32.747Z,7.05
2022-12-19T17:56:59.416Z,6.18
2022-12-19T17:59:28.387Z,5.68
2022-12-19T18:01:54.972Z,6.30
2022-12-19T18:04:21.828Z,7.05
2022-12-19T18:06:49.223Z,6.65
2022-12-19T18:09:20.792Z,4.68
2022-12-19T18:11:49.197Z,8.35
2022-12-19T18:14:17.672Z,6.43
2022-12-19T18:16:45.592Z,4.75
2022-12-19T18:19:20.063Z,9.32
2022-12-19T18:21:46.885Z,5.97
2022-12-19T18:24:16.235Z,9.77
2022-12-19T18:26:43.547Z,6.50
2022-12-19T18:29:10.290Z,5.75
2022-12-19T18:31:37.053Z,5.55
2022-12-19T18:34:07.992Z,6.78
2022-12-19T18:36:42.712Z,7.77
2022-12-19T18:39:22.406Z,8.00
2022-12-19T18:44:30.449Z,6.88
2022-12-19T18:46:56.993Z,6.38
2022-12-19T18:49:23.420Z,7.45
2022-12-19T18:51:49.951Z,9.52
2022-12-19T18:54:20.654Z,5.80
2022-12-19T18:56:47.543Z,7.50
2022-12-19T18:59:14.045Z,7.65
2022-12-19T19:01:47.176Z,5.88
2022-12-19T19:04:18.135Z,5.43
2022-12-19T19:06:50.931Z,5.75
2022-12-19T19:09:19.952Z,6.07
2022-12-19T19:11:46.513Z,6.10
2022-12-19T19:14:12.999Z,7.85
2022-12-19T19:16:40.019Z,5.55
2022-12-19T19:19:10.830Z,5.63
2022-12-19T19:21:37.869Z,7.85
2022-12-19T19:24:14.733Z,4.97
2022-12-19T19:26:41.201Z,5.28
2022-12-19T19:29:07.844Z,7.30
2022-12-19T19:31:38.833Z,5.57
2022-12-19T19:34:14.402Z,5.35
2022-12-19T19:36:44.865Z,9.48
2022-12-19T19:39:12.397Z,5.75
2022-12-19T19:41:38.835Z,4.88
2022-12-19T19:44:05.705Z,6.05
2022-12-19T19:46:32.971Z,7.32
2022-12-19T19:48:59.572Z,7.45
2022-12-19T19:51:28.668Z,5.35
2022-12-19T19:53:56.726Z,6.63
2022-12-19T19:56:24.724Z,7.57
2022-12-19T19:58:51.842Z,5.75
2022-12-19T20:01:20.362Z,4.72
2022-12-19T20:03:48.505Z,7.97
2022-12-19T20:06:15.170Z,6.72
2022-12-19T20:08:41.578Z,6.57
2022-12-19T20:11:15.620Z,9.02
2022-12-19T20:13:44.623Z,6.35
2022-12-19T20:16:28.508Z,8.02
2022-12-19T20:21:35.580Z,7.97
2022-12-19T20:24:15.669Z,8.32
2022-12-19T20:26:42.793Z,8.15
2022-12-19T20:29:12.310Z,8.25
2022-12-19T20:31:47.824Z,7.38
2022-12-19T20:34:14.365Z,5.57
2022-12-19T20:36:49.574Z,5.55
2022-12-19T20:39:22.112Z,5.28
2022-12-19T20:44:22.081Z,4.97
2022-12-19T20:46:50.694Z,7.07
2022-12-19T20:49:18.541Z,6.28
2022-12-19T20:51:50.328Z,8.05
2022-12-19T20:54:18.702Z,7.00
2022-12-19T20:56:45.461Z,6.40
2022-12-19T20:59:11.979Z,5.13
2022-12-19T21:01:41.552Z,7.38
2022-12-19T21:04:08.498Z,7.80
2022-12-19T21:06:37.626Z,6.35
2022-12-19T21:09:06.047Z,5.65
2022-12-19T21:11:33.771Z,6.82
2022-12-19T21:14:00.486Z,7.40
2022-12-19T21:16:26.895Z,6.03
2022-12-19T21:18:53.456Z,6.15
2022-12-19T21:21:24.366Z,5.72
2022-12-19T21:23:51.376Z,7.38
2022-12-19T21:26:21.310Z,8.60
2022-12-19T21:28:54.136Z,5.43
2022-12-19T21:31:27.557Z,5.60
2022-12-19T21:34:03.678Z,5.65
2022-12-19T21:36:31.557Z,11.85
2022-12-19T21:39:02.393Z,8.77
2022-12-19T21:41:29.408Z,8.77
2022-12-19T21:43:56.869Z,6.50
2022-12-19T21:46:33.181Z,8.63
2022-12-19T21:49:00.489Z,7.00
2022-12-19T21:51:31.731Z,5.85
2022-12-19T21:54:00.695Z,7.70
2022-12-19T21:56:41.378Z,6.75
2022-12-19T21:59:12.366Z,8.45
2022-12-19T22:01:40.033Z,7.50
2022-12-19T22:04:12.406Z,8.82
2022-12-19T22:06:39.334Z,12.23
2022-12-19T22:09:08.168Z,6.95
2022-12-19T22:11:36.100Z,5.68
2022-12-19T22:14:04.970Z,5.72
2022-12-19T22:16:34.591Z,5.90
2022-12-19T22:19:01.244Z,8.10
2022-12-19T22:21:28.270Z,10.35
2022-12-19T22:24:02.213Z,7.55
2022-12-19T22:26:30.689Z,6.63
2022-12-19T22:28:59.150Z,5.22
2022-12-19T22:31:26.956Z,6.10
2022-12-19T22:33:58.949Z,5.47
2022-12-19T22:36:28.682Z,7.90
2022-12-19T22:38:56.596Z,6.72
2022-12-19T22:41:23.219Z,5.25
2022-12-19T22:43:49.779Z,5.35
2022-12-19T22:46:23.009Z,7.35
2022-12-19T22:48:52.670Z,7.38
2022-12-19T22:51:20.411Z,5.13
2022-12-19T22:53:47.667Z,7.68
2022-12-19T22:56:17.414Z,7.35
2022-12-19T22:58:46.400Z,7.43
2022-12-19T23:01:20.073Z,5.55
2022-12-19T23:03:50.164Z,5.57
2022-12-19T23:06:17.364Z,5.50
2022-12-19T23:08:44.718Z,4.65
2022-12-19T23:11:14.663Z,5.70
2022-12-19T23:13:41.809Z,6.28
2022-12-19T23:16:08.776Z,6.15
2022-12-19T23:18:35.198Z,4.95
2022-12-19T23:21:04.041Z,5.53
2022-12-19T23:23:42.406Z,5.70
2022-12-19T23:26:30.098Z,6.82
2022-12-19T23:29:15.547Z,5.45
2022-12-19T23:31:45.558Z,5.70
2022-12-19T23:34:14.364Z,9.35
2022-12-19T23:39:31.580Z,5.15
2022-12-19T23:41:57.937Z,3.70
2022-12-19T23:44:24.511Z,4.63
2022-12-19T23:46:51.122Z,6.05
2022-12-19T23:49:17.615Z,6.38
2022-12-19T23:51:44.040Z,5.20
2022-12-19T23:54:11.177Z,7.32
2022-12-19T23:56:37.592Z,6.20
2022-12-19T23:59:04.280Z,6.40
